Time,TemperatureF,DewpointF,PressureIn,WindDirection,WindDirectionDegrees,WindSpeedMPH,WindSpeedGustMPH,Humidity,HourlyPrecipIn,Conditions,Clouds,dailyrainin,SoftwareType,DateUTC
2016-02-07 00:01:00,35.0,26.2,30.09,SSW,208,3.0,5.6,70,0.00,,,0.00,WSDL version 536,2016-02-07 06:01:00,
2016-02-07 00:11:00,35.0,26.2,30.09,South,182,2.9,4.7,70,0.00,,,0.00,WSDL version 536,2016-02-07 06:11:00,
2016-02-07 00:16:00,35.0,26.5,30.09,South,178,2.3,4.7,71,0.00,,,0.00,WSDL version 536,2016-02-07 06:16:00,
2016-02-07 00:21:00,35.1,26.4,30.09,South,185,3.5,6.0,70,0.00,,,0.00,WSDL version 536,2016-02-07 06:21:00,
2016-02-07 00:31:00,35.2,26.6,30.09,South,178,3.1,4.3,71,0.00,,,0.00,WSDL version 536,2016-02-07 06:31:00,
2016-02-07 00:36:00,35.2,26.6,30.09,SSW,196,2.9,4.7,71,0.00,,,0.00,WSDL version 536,2016-02-07 06:36:00,
2016-02-07 00:41:00,35.2,26.6,30.06,SSW,198,3.8,5.6,71,0.00,,,0.00,WSDL version 536,2016-02-07 06:41:00,
2016-02-07 00:46:00,35.3,26.7,30.06,South,182,2.7,5.6,71,0.00,,,0.00,WSDL version 536,2016-02-07 06:46:00,
2016-02-07 00:51:00,35.4,26.8,30.06,South,185,3.6,4.7,71,0.00,,,0.00,WSDL version 536,2016-02-07 06:51:00,
2016-02-07 00:56:00,35.4,26.8,30.06,SSW,196,3.8,6.0,71,0.00,,,0.00,WSDL version 536,2016-02-07 06:56:00,
2016-02-07 01:01:00,35.5,26.9,30.06,SSW,205,3.1,6.0,71,0.00,,,0.00,WSDL version 536,2016-02-07 07:01:00,
2016-02-07 01:06:00,35.5,27.2,30.06,South,191,3.0,6.0,71,0.00,,,0.00,WSDL version 536,2016-02-07 07:06:00,
2016-02-07 01:11:00,35.5,27.2,30.06,SSW,200,3.0,6.0,71,0.00,,,0.00,WSDL version 536,2016-02-07 07:11:00,
2016-02-07 01:16:00,35.4,26.8,30.06,South,186,3.1,6.0,71,0.00,,,0.00,WSDL version 536,2016-02-07 07:16:00,
2016-02-07 01:21:00,35.4,26.8,30.06,South,189,2.7,5.6,71,0.00,,,0.00,WSDL version 536,2016-02-07 07:21:00,
2016-02-07 01:26:00,35.4,26.8,30.09,SSW,203,1.5,4.3,71,0.00,,,0.00,WSDL version 536,2016-02-07 07:26:00,
2016-02-07 01:31:00,35.3,26.7,30.09,South,180,2.4,4.0,71,0.00,,,0.00,WSDL version 536,2016-02-07 07:31:00,
2016-02-07 01:36:00,35.2,26.6,30.09,SSW,203,2.2,4.9,71,0.00,,,0.00,WSDL version 536,2016-02-07 07:36:00,
2016-02-07 01:41:00,35.4,26.8,30.09,SSW,200,2.2,4.9,71,0.00,,,0.00,WSDL version 536,2016-02-07 07:41:00,
2016-02-07 01:46:00,35.4,26.8,30.09,South,190,3.3,4.9,71,0.00,,,0.00,WSDL version 536,2016-02-07 07:46:00,
2016-02-07 01:51:00,35.5,26.9,30.09,South,190,2.5,4.9,71,0.00,,,0.00,WSDL version 536,2016-02-07 07:51:00,
2016-02-07 01:56:00,35.5,26.8,30.06,SSW,198,2.2,4.9,70,0.00,,,0.00,WSDL version 536,2016-02-07 07:56:00,
2016-02-07 02:01:00,35.5,26.7,30.06,South,189,2.1,4.9,70,0.00,,,0.00,WSDL version 536,2016-02-07 08:01:00,
2016-02-07 02:06:00,35.4,26.5,30.06,SSW,205,1.6,3.1,70,0.00,,,0.00,WSDL version 536,2016-02-07 08:06:00,
2016-02-07 02:11:00,35.2,26.3,30.06,South,182,1.8,3.8,70,0.00,,,0.00,WSDL version 536,2016-02-07 08:11:00,
2016-02-07 02:16:00,35.1,26.2,30.06,SSW,207,1.2,3.8,70,0.00,,,0.00,WSDL version 536,2016-02-07 08:16:00,
2016-02-07 02:22:00,35.0,26.0,30.06,South,173,1.8,3.8,69,0.00,,,0.00,WSDL version 536,2016-02-07 08:22:00,
2016-02-07 02:27:00,34.8,25.8,30.06,South,188,2.7,3.8,69,0.00,,,0.00,WSDL version 536,2016-02-07 08:27:00,
2016-02-07 02:32:00,34.7,25.8,30.06,SW,217,2.8,6.5,70,0.00,,,0.00,WSDL version 536,2016-02-07 08:32:00,
2016-02-07 02:37:00,34.8,25.9,30.06,SW,225,4.4,7.4,70,0.00,,,0.00,WSDL version 536,2016-02-07 08:37:00,
2016-02-07 02:42:00,35.0,26.1,30.06,SSW,212,3.8,7.6,70,0.00,,,0.00,WSDL version 536,2016-02-07 08:42:00,
2016-02-07 02:47:00,35.1,26.2,30.06,SW,219,3.7,7.6,70,0.00,,,0.00,WSDL version 536,2016-02-07 08:47:00,
2016-02-07 02:52:00,35.2,26.3,30.06,SW,223,3.5,5.4,70,0.00,,,0.00,WSDL version 536,2016-02-07 08:52:00,
2016-02-07 02:57:00,35.3,26.4,30.03,SSW,208,3.4,6.3,70,0.00,,,0.00,WSDL version 536,2016-02-07 08:57:00,
2016-02-07 03:02:00,35.4,26.1,30.03,SSW,210,3.9,7.4,69,0.00,,,0.00,WSDL version 536,2016-02-07 09:02:00,
2016-02-07 03:07:00,35.4,26.3,30.03,SSW,200,3.8,7.4,69,0.00,,,0.00,WSDL version 536,2016-02-07 09:07:00,
2016-02-07 03:12:00,35.4,26.3,30.03,SW,218,4.2,6.5,69,0.00,,,0.00,WSDL version 536,2016-02-07 09:12:00,
2016-02-07 03:17:00,35.4,26.5,30.03,SW,225,4.5,8.1,70,0.00,,,0.00,WSDL version 536,2016-02-07 09:17:00,
2016-02-07 03:22:00,35.5,26.3,30.03,SSW,211,5.5,8.1,69,0.00,,,0.00,WSDL version 536,2016-02-07 09:22:00,
2016-02-07 03:27:00,35.7,26.5,30.06,SSW,203,5.4,7.8,69,0.00,,,0.00,WSDL version 536,2016-02-07 09:27:00,
2016-02-07 03:32:00,35.7,26.5,30.06,SW,229,5.0,8.1,69,0.00,,,0.00,WSDL version 536,2016-02-07 09:32:00,
2016-02-07 03:37:00,35.7,26.5,30.06,SW,228,5.6,8.1,69,0.00,,,0.00,WSDL version 536,2016-02-07 09:37:00,
2016-02-07 03:42:00,35.7,26.5,30.06,SSW,208,5.4,10.1,69,0.00,,,0.00,WSDL version 536,2016-02-07 09:42:00,
2016-02-07 03:47:00,35.7,26.6,30.06,SW,215,5.8,10.1,69,0.00,,,0.00,WSDL version 536,2016-02-07 09:47:00,
2016-02-07 03:52:00,35.8,26.9,30.06,SW,215,5.6,10.3,70,0.00,,,0.00,WSDL version 536,2016-02-07 09:52:00,
2016-02-07 03:57:00,35.9,27.0,30.03,SW,225,5.2,10.3,70,0.00,,,0.00,WSDL version 536,2016-02-07 09:57:00,
2016-02-07 04:02:00,36.0,27.1,30.03,SW,215,5.9,8.7,70,0.00,,,0.00,WSDL version 536,2016-02-07 10:02:00,
2016-02-07 04:07:00,36.1,27.2,30.03,SW,214,5.2,8.7,70,0.00,,,0.00,WSDL version 536,2016-02-07 10:07:00,
2016-02-07 04:12:00,36.2,27.2,30.03,WSW,241,5.4,9.8,70,0.00,,,0.00,WSDL version 536,2016-02-07 10:12:00,
2016-02-07 04:17:00,36.2,27.4,30.03,WSW,241,5.1,9.8,70,0.00,,,0.00,WSDL version 536,2016-02-07 10:17:00,
2016-02-07 04:22:00,36.0,27.3,30.03,SSW,210,4.5,9.6,70,0.00,,,0.00,WSDL version 536,2016-02-07 10:22:00,
2016-02-07 04:27:00,36.0,27.4,30.03,SSW,205,4.0,9.2,71,0.00,,,0.00,WSDL version 536,2016-02-07 10:27:00,
2016-02-07 04:32:00,36.0,27.4,30.03,SW,214,4.7,9.2,71,0.00,,,0.00,WSDL version 536,2016-02-07 10:32:00,
2016-02-07 04:37:00,36.0,27.6,30.03,SW,221,4.8,9.6,71,0.00,,,0.00,WSDL version 536,2016-02-07 10:37:00,
2016-02-07 04:42:00,36.0,27.7,30.03,SW,215,4.5,9.6,72,0.00,,,0.00,WSDL version 536,2016-02-07 10:42:00,
2016-02-07 04:47:00,36.0,27.9,30.03,SW,223,5.9,8.1,72,0.00,,,0.00,WSDL version 536,2016-02-07 10:47:00,
2016-02-07 04:52:00,36.0,28.0,30.03,South,183,5.3,9.6,72,0.00,,,0.00,WSDL version 536,2016-02-07 10:52:00,
2016-02-07 04:57:00,36.0,28.0,30.03,SSW,213,6.5,9.6,72,0.00,,,0.00,WSDL version 536,2016-02-07 10:57:00,
2016-02-07 05:02:00,36.0,28.0,30.03,SSW,200,7.0,10.1,72,0.00,,,0.00,WSDL version 536,2016-02-07 11:02:00,
2016-02-07 05:07:00,36.0,28.1,30.03,SSW,207,5.6,10.1,73,0.00,,,0.00,WSDL version 536,2016-02-07 11:07:00,
2016-02-07 05:17:00,36.2,28.2,30.00,SW,218,7.4,10.5,72,0.00,,,0.00,WSDL version 536,2016-02-07 11:17:00,
2016-02-07 05:22:00,36.3,28.3,30.00,SW,222,7.1,10.5,72,0.00,,,0.00,WSDL version 536,2016-02-07 11:22:00,
2016-02-07 05:27:00,36.3,28.3,30.00,SSW,211,7.3,11.9,72,0.00,,,0.00,WSDL version 536,2016-02-07 11:27:00,
2016-02-07 05:32:00,36.5,28.4,30.00,SW,231,6.5,11.9,72,0.00,,,0.00,WSDL version 536,2016-02-07 11:32:00,
2016-02-07 05:38:00,36.5,28.5,30.00,SW,230,6.8,10.1,72,0.00,,,0.00,WSDL version 536,2016-02-07 11:38:00,
2016-02-07 05:43:00,36.4,28.1,30.03,SW,216,6.6,10.5,72,0.00,,,0.00,WSDL version 536,2016-02-07 11:43:00,
2016-02-07 05:48:00,36.5,28.3,30.03,SW,232,6.4,10.5,72,0.00,,,0.00,WSDL version 536,2016-02-07 11:48:00,
2016-02-07 05:53:00,36.3,28.0,30.03,SW,230,6.1,10.3,72,0.00,,,0.00,WSDL version 536,2016-02-07 11:53:00,
2016-02-07 05:58:00,36.2,27.9,30.00,SW,225,4.1,10.3,72,0.00,,,0.00,WSDL version 536,2016-02-07 11:58:00,